28TN weather

Bhm East Helipad Heliport
Memphis, Tennessee, United States

Public forecast

Using degrees Fahrenheit for public forecast. Weather courtesy of forecast.io.

Closest aviation weather report (METAR) to Bhm East Helipad Heliport

Closest report is Memphis International Airport, 7.6 nm (14.0 km) SW. Retrieved 2019/10/19 08:54 UTC (38 minutes ago):

KMEM 190854Z 16003KT 10SM CLR 11/07 A2983 RMK AO2 SLP099 T01110072 56010

Closest aviation forecast (TAF) to Bhm East Helipad Heliport

Closest forecast is Memphis International Airport, 7.6 nm (14.0 km) SW. Retrieved 2019/10/19 06:22 UTC (3 hours ago):

TAF KMEM 190520Z 1906/2012 11005KT P6SM SKC FM191500 17004KT P6SM SCT100 FM200900 15003KT P6SM OVC050